createdAt,value
2023-04-21T00:00:02.260Z,18.6
2023-04-21T00:01:01.026Z,18.6
2023-04-21T00:02:01.067Z,18.5
2023-04-21T00:03:01.136Z,18.5
2023-04-21T00:04:01.258Z,18.4
2023-04-21T00:05:02.636Z,18.3
2023-04-21T00:06:02.201Z,18.2
2023-04-21T00:07:01.127Z,18.2
2023-04-21T00:08:01.076Z,18.2
2023-04-21T00:09:01.080Z,18.2
2023-04-21T00:10:00.702Z,18.1
2023-04-21T00:11:00.315Z,18.2
2023-04-21T00:11:59.899Z,18.2
2023-04-21T00:12:59.602Z,18.1
2023-04-21T00:14:02.352Z,18.1
2023-04-21T00:15:01.382Z,18.2
2023-04-21T00:16:01.107Z,18.2
2023-04-21T00:17:01.756Z,18.2
2023-04-21T00:18:01.113Z,18.2
2023-04-21T00:19:01.024Z,18.1
2023-04-21T00:20:01.035Z,18.2
2023-04-21T00:21:01.036Z,18.2
2023-04-21T00:22:00.679Z,18.2
2023-04-21T00:23:00.268Z,18.4
2023-04-21T00:24:00.006Z,18.3
2023-04-21T00:24:59.868Z,18.3
2023-04-21T00:26:01.434Z,18.4
2023-04-21T00:27:01.010Z,18.5
2023-04-21T00:28:01.040Z,18.6
2023-04-21T00:29:01.042Z,18.6
2023-04-21T00:30:01.042Z,18.6
2023-04-21T00:31:01.060Z,18.5
2023-04-21T00:32:01.266Z,18.6
2023-04-21T00:33:01.151Z,18.6
2023-04-21T00:34:01.134Z,18.6
2023-04-21T00:35:01.243Z,18.6
2023-04-21T00:36:01.409Z,18.6
2023-04-21T00:37:01.031Z,18.6
2023-04-21T00:38:01.039Z,18.5
2023-04-21T00:39:01.050Z,18.6
2023-04-21T00:40:01.021Z,18.6
2023-04-21T00:41:01.050Z,18.6
2023-04-21T00:42:01.414Z,18.7
2023-04-21T00:43:01.138Z,18.6
2023-04-21T00:44:01.031Z,18.7
2023-04-21T00:45:01.045Z,18.7
2023-04-21T00:46:01.061Z,18.7
2023-04-21T00:47:01.091Z,18.8
2023-04-21T00:48:01.101Z,18.8
2023-04-21T00:49:01.008Z,18.8
2023-04-21T00:50:01.022Z,18.9
2023-04-21T00:51:01.103Z,18.8
2023-04-21T00:52:03.983Z,18.9
2023-04-21T00:53:01.801Z,18.9
2023-04-21T00:54:01.926Z,18.9
2023-04-21T00:55:01.733Z,19
2023-04-21T00:56:01.032Z,19
2023-04-21T00:57:02.826Z,18.9
2023-04-21T00:58:01.702Z,18.9
2023-04-21T00:59:01.231Z,18.9
2023-04-21T01:00:01.884Z,19
2023-04-21T01:01:01.922Z,18.9
2023-04-21T01:02:01.176Z,19
2023-04-21T01:03:01.143Z,19
2023-04-21T01:04:02.051Z,19
2023-04-21T01:05:02.372Z,19
2023-04-21T01:06:01.689Z,18.9
2023-04-21T01:07:01.843Z,18.9
2023-04-21T01:08:01.419Z,18.9
2023-04-21T01:09:01.139Z,18.9
2023-04-21T01:10:07.926Z,18.9
2023-04-21T01:11:03.916Z,18.9
2023-04-21T01:12:03.513Z,19
2023-04-21T01:13:01.020Z,18.9
2023-04-21T01:14:01.034Z,18.9
2023-04-21T01:15:01.107Z,18.9
2023-04-21T01:16:02.484Z,18.9
2023-04-21T01:17:05.885Z,18.9
2023-04-21T01:18:02.107Z,18.8
2023-04-21T01:19:01.453Z,18.8
2023-04-21T01:20:01.045Z,18.9
2023-04-21T01:21:00.732Z,18.9
2023-04-21T01:22:08.382Z,18.9
2023-04-21T01:23:01.460Z,18.9
2023-04-21T01:24:01.073Z,19
2023-04-21T01:25:01.023Z,19.1
2023-04-21T01:26:01.015Z,19.1
2023-04-21T01:27:10.748Z,19.3
2023-04-21T01:28:01.380Z,19.3
2023-04-21T01:29:04.552Z,19.4
2023-04-21T01:30:01.152Z,19.5
2023-04-21T01:31:02.232Z,19.5
2023-04-21T01:32:13.208Z,19.6
2023-04-21T01:33:01.978Z,19.8
2023-04-21T01:34:01.079Z,19.9
2023-04-21T01:35:00.595Z,20
2023-04-21T01:36:00.141Z,19.9
2023-04-21T01:37:15.082Z,19.9
2023-04-21T01:38:02.009Z,20
2023-04-21T01:39:01.196Z,20
2023-04-21T01:40:01.075Z,20.1
2023-04-21T01:41:01.012Z,20.2
2023-04-21T01:42:01.062Z,20.3
2023-04-21T01:43:01.037Z,20.3
2023-04-21T01:44:01.034Z,20.4
2023-04-21T01:45:01.029Z,20.4
2023-04-21T01:46:02.791Z,20.4
2023-04-21T01:47:01.383Z,20.4
2023-04-21T01:48:02.247Z,20.3
2023-04-21T01:49:02.203Z,20.3
2023-04-21T01:50:01.560Z,20.5
2023-04-21T01:51:01.051Z,20.3
2023-04-21T01:52:01.032Z,20.3
2023-04-21T01:53:01.042Z,20.2
2023-04-21T01:54:01.173Z,20.3
2023-04-21T01:55:01.171Z,20.4
2023-04-21T01:56:01.395Z,20.4
2023-04-21T01:57:03.860Z,20.4
2023-04-21T01:58:01.040Z,20.6
2023-04-21T01:59:01.033Z,20.6
2023-04-21T02:00:01.037Z,20.7
2023-04-21T02:01:01.108Z,20.8
2023-04-21T02:02:01.378Z,20.8
2023-04-21T02:03:02.017Z,21.1
2023-04-21T02:04:01.169Z,21
2023-04-21T02:05:01.235Z,21
2023-04-21T02:06:01.309Z,20.9
2023-04-21T02:07:01.496Z,21
2023-04-21T02:08:02.622Z,21
2023-04-21T02:09:01.777Z,21
2023-04-21T02:10:01.794Z,21.2
2023-04-21T02:11:01.706Z,21.1
2023-04-21T02:12:01.066Z,21.3
2023-04-21T02:13:01.233Z,21.5
2023-04-21T02:14:02.484Z,21.7
2023-04-21T02:15:02.072Z,21.8
2023-04-21T02:16:12.850Z,22
2023-04-21T02:17:01.029Z,22
2023-04-21T02:18:01.133Z,22.1
2023-04-21T02:19:01.036Z,22.2
2023-04-21T02:20:03.356Z,22.4
2023-04-21T02:21:01.043Z,22.7
2023-04-21T02:22:01.022Z,22.7
2023-04-21T02:23:01.188Z,23
2023-04-21T02:24:01.187Z,23.1
2023-04-21T02:25:01.758Z,23.2
2023-04-21T02:26:01.408Z,23.3
2023-04-21T02:27:01.137Z,23.3
2023-04-21T02:28:01.776Z,23.5
2023-04-21T02:29:01.762Z,23.5
2023-04-21T02:30:01.058Z,23.6
2023-04-21T02:31:01.077Z,23.4
2023-04-21T02:32:10.849Z,23.5
2023-04-21T02:33:01.097Z,23.7
2023-04-21T02:34:01.434Z,23.8
2023-04-21T02:35:03.846Z,23.8
2023-04-21T02:36:01.042Z,23.7
2023-04-21T02:37:01.031Z,23.7
2023-04-21T02:38:00.602Z,23.7
2023-04-21T02:39:00.215Z,23.7
2023-04-21T02:39:59.938Z,23.7
2023-04-21T02:40:59.556Z,23.7
2023-04-21T02:42:01.670Z,23.7
2023-04-21T02:43:01.802Z,23.7
2023-04-21T02:44:01.894Z,24.1
2023-04-21T02:45:01.720Z,24.3
2023-04-21T02:46:01.684Z,24.3
2023-04-21T02:47:02.013Z,24.4
2023-04-21T02:48:01.270Z,24.4
2023-04-21T02:49:01.875Z,24.6
2023-04-21T02:50:01.018Z,24.5
2023-04-21T02:51:01.029Z,24.5
2023-04-21T02:52:01.046Z,24.6
2023-04-21T02:53:01.415Z,24.7
2023-04-21T02:54:02.796Z,24.6
2023-04-21T02:55:02.457Z,24.6
2023-04-21T02:56:02.395Z,24.6
2023-04-21T02:57:02.006Z,24.5
2023-04-21T02:58:01.044Z,24.6
2023-04-21T02:59:01.048Z,24.6
2023-04-21T03:00:01.032Z,24.5
2023-04-21T03:01:01.352Z,24.5
2023-04-21T03:02:01.287Z,24.4
2023-04-21T03:03:01.997Z,24.6
2023-04-21T03:04:01.217Z,24.5
2023-04-21T03:05:01.197Z,24.3
2023-04-21T03:06:01.048Z,24.4
2023-04-21T03:07:01.233Z,24.5
2023-04-21T03:08:04.841Z,24.5
2023-04-21T03:09:01.255Z,24.4
2023-04-21T03:10:01.405Z,24.4
2023-04-21T03:11:01.439Z,24.4
2023-04-21T03:12:01.130Z,24.5
2023-04-21T03:13:07.722Z,24.7
2023-04-21T03:14:01.038Z,24.8
2023-04-21T03:15:00.657Z,24.8
2023-04-21T03:16:00.263Z,24.7
2023-04-21T03:16:59.935Z,24.8
2023-04-21T03:18:09.739Z,24.8
2023-04-21T03:19:01.017Z,24.8
2023-04-21T03:20:00.706Z,24.7
2023-04-21T03:21:00.314Z,24.8
2023-04-21T03:21:59.979Z,24.8
2023-04-21T03:23:12.308Z,24.8
2023-04-21T03:24:01.106Z,24.9
2023-04-21T03:25:02.343Z,25
2023-04-21T03:26:01.516Z,25.1
2023-04-21T03:27:01.010Z,25.2
2023-04-21T03:28:15.489Z,25.2
2023-04-21T03:29:01.436Z,25.3
2023-04-21T03:30:02.130Z,25.3
2023-04-21T03:31:01.994Z,25.2
2023-04-21T03:32:04.598Z,25.3
2023-04-21T03:33:01.054Z,25.3
2023-04-21T03:34:01.051Z,25.4
2023-04-21T03:35:01.059Z,25.4
2023-04-21T03:36:01.151Z,25.4
2023-04-21T03:37:01.044Z,25.4
2023-04-21T03:38:03.713Z,25.4
2023-04-21T03:39:12.663Z,25.4
2023-04-21T03:40:00.710Z,25.6
2023-04-21T03:41:00.312Z,25.4
2023-04-21T03:41:59.896Z,25.6
2023-04-21T03:42:59.491Z,25.6
2023-04-21T03:44:01.683Z,25.6
2023-04-21T03:45:01.048Z,25.8
2023-04-21T03:46:01.479Z,25.6
2023-04-21T03:47:01.407Z,25.6
2023-04-21T03:48:02.054Z,25.6
2023-04-21T03:49:03.844Z,25.5
2023-04-21T03:50:01.025Z,25.6
2023-04-21T03:51:01.034Z,25.6
2023-04-21T03:52:01.025Z,25.7
2023-04-21T03:53:01.025Z,25.6
2023-04-21T03:54:01.061Z,25.8
2023-04-21T03:55:01.599Z,25.9
2023-04-21T03:56:01.107Z,25.9
2023-04-21T03:57:01.403Z,26
2023-04-21T03:58:02.406Z,25.7
2023-04-21T03:59:02.020Z,25.6
2023-04-21T04:00:01.027Z,25.8
2023-04-21T04:01:01.782Z,26
2023-04-21T04:02:01.808Z,26
2023-04-21T04:03:02.567Z,26
2023-04-21T04:04:01.404Z,25.9
2023-04-21T04:05:02.185Z,25.9
2023-04-21T04:06:02.075Z,25.9
2023-04-21T04:07:01.146Z,25.8
2023-04-21T04:08:01.028Z,25.9
2023-04-21T04:09:01.017Z,25.9
2023-04-21T04:10:01.849Z,26
2023-04-21T04:11:01.027Z,26
2023-04-21T04:12:01.024Z,26
2023-04-21T04:13:01.214Z,26
2023-04-21T04:14:01.416Z,25.9
2023-04-21T04:15:01.908Z,26.1
2023-04-21T04:16:01.089Z,26.1
2023-04-21T04:17:01.021Z,26
2023-04-21T04:18:01.043Z,25.8
2023-04-21T04:19:01.049Z,25.9
2023-04-21T04:20:00.813Z,25.7
2023-04-21T04:21:01.373Z,25.6
2023-04-21T04:22:02.772Z,25.6
2023-04-21T04:23:02.387Z,25.4
2023-04-21T04:24:01.959Z,25.2
2023-04-21T04:25:01.073Z,25.2
2023-04-21T04:26:01.077Z,25.1
2023-04-21T04:27:01.108Z,25.1
2023-04-21T04:28:01.042Z,25.2
2023-04-21T04:29:01.517Z,25.1
2023-04-21T04:30:01.272Z,25.1
2023-04-21T04:31:02.261Z,25
2023-04-21T04:32:01.105Z,24.9
2023-04-21T04:33:01.088Z,24.7
2023-04-21T04:34:01.081Z,24.6
2023-04-21T04:35:01.868Z,24.6
2023-04-21T04:36:01.241Z,24.5
2023-04-21T04:37:01.625Z,24.4
2023-04-21T04:38:01.131Z,24.1
2023-04-21T04:39:02.284Z,24
2023-04-21T04:40:00.844Z,23.6
2023-04-21T04:41:01.092Z,23.6
2023-04-21T04:42:01.679Z,23.2
2023-04-21T04:43:01.125Z,23.1
2023-04-21T04:44:01.620Z,23
2023-04-21T04:45:01.022Z,22.8
2023-04-21T04:46:01.025Z,22.5
2023-04-21T04:47:01.122Z,22.5
2023-04-21T04:48:01.074Z,22.1
2023-04-21T04:49:05.568Z,22.1
2023-04-21T04:50:01.450Z,21.8
2023-04-21T04:51:01.030Z,21.6
2023-04-21T04:52:01.048Z,21.3
2023-04-21T04:53:00.619Z,20.9
2023-04-21T04:54:08.308Z,20.5
2023-04-21T04:55:01.248Z,20.2
2023-04-21T04:56:00.879Z,19.7
2023-04-21T04:57:00.549Z,19
2023-04-21T04:58:00.214Z,18.5
2023-04-21T04:59:11.066Z,18.1
2023-04-21T05:00:00.855Z,17.6
2023-04-21T05:01:00.625Z,17.2
2023-04-21T05:02:00.404Z,16.8
2023-04-21T05:03:00.247Z,16.4
2023-04-21T05:04:13.216Z,16
2023-04-21T05:05:04.180Z,15
2023-04-21T05:06:01.761Z,14.8
2023-04-21T05:07:04.113Z,13.9
2023-04-21T05:08:01.755Z,12.4
2023-04-21T05:09:15.972Z,11.7
2023-04-21T05:10:01.413Z,11.6
2023-04-21T05:11:01.020Z,10.8
2023-04-21T05:12:01.029Z,10.4
2023-04-21T05:13:01.037Z,10.1
2023-04-21T05:14:01.020Z,9.4
2023-04-21T05:15:01.048Z,8.6
2023-04-21T05:16:01.158Z,8.2
2023-04-21T05:17:02.046Z,8.2
2023-04-21T05:18:02.718Z,8.1
2023-04-21T05:19:01.015Z,7.5
2023-04-21T05:20:00.876Z,7.2
2023-04-21T05:21:01.136Z,6.8
2023-04-21T05:22:01.059Z,6.1
2023-04-21T05:23:01.045Z,6.1
2023-04-21T05:24:01.177Z,5.3
2023-04-21T05:25:00.622Z,4.9
2023-04-21T05:26:02.624Z,4.8
2023-04-21T05:27:04.783Z,4.3
2023-04-21T05:28:01.757Z,4.2
2023-04-21T05:29:02.381Z,3.8
2023-04-21T05:30:02.091Z,3.2
2023-04-21T05:31:02.438Z,3
2023-04-21T05:32:04.029Z,3.1
2023-04-21T05:33:01.211Z,2.7
2023-04-21T05:34:02.046Z,1.9
2023-04-21T05:35:02.291Z,2
2023-04-21T05:36:01.060Z,1.9
2023-04-21T05:37:01.058Z,1.8
2023-04-21T05:38:01.071Z,1.9
2023-04-21T05:39:01.046Z,2.2
2023-04-21T05:40:00.866Z,1.6
2023-04-21T05:41:01.131Z,1
2023-04-21T05:42:01.039Z,1
2023-04-21T05:43:01.182Z,1
2023-04-21T05:44:01.026Z,1
2023-04-21T05:45:00.614Z,1
2023-04-21T05:46:00.331Z,1
2023-04-21T05:46:59.947Z,1
2023-04-21T05:47:59.503Z,1
2023-04-21T05:49:02.172Z,1
2023-04-21T05:50:01.454Z,1
2023-04-21T05:51:02.056Z,1
2023-04-21T05:52:01.376Z,1
2023-04-21T05:53:01.060Z,1
2023-04-21T05:54:01.022Z,1
2023-04-21T05:55:01.039Z,1
2023-04-21T05:56:01.018Z,1
2023-04-21T05:57:01.044Z,1
2023-04-21T05:58:01.049Z,1
2023-04-21T05:59:01.174Z,1
2023-04-21T06:00:00.653Z,1
2023-04-21T06:01:00.312Z,1
2023-04-21T06:01:59.953Z,1
2023-04-21T06:02:59.718Z,1
2023-04-21T06:04:02.736Z,1
2023-04-21T06:05:02.811Z,1
2023-04-21T06:06:02.778Z,1
2023-04-21T06:07:01.274Z,1
2023-04-21T06:08:01.429Z,1
2023-04-21T06:09:02.055Z,1
2023-04-21T06:10:01.056Z,1
2023-04-21T06:11:01.016Z,1
2023-04-21T06:12:01.036Z,1
2023-04-21T06:13:01.036Z,1
2023-04-21T06:14:01.042Z,1.7
2023-04-21T06:15:01.022Z,2.8
2023-04-21T06:16:01.037Z,3.6
2023-04-21T06:17:01.102Z,3.6
2023-04-21T06:18:01.182Z,3.9
2023-04-21T06:19:01.876Z,4.7
2023-04-21T06:20:00.865Z,5.3
2023-04-21T06:21:01.027Z,5.9
2023-04-21T06:22:01.082Z,5.7
2023-04-21T06:23:01.106Z,5.9
2023-04-21T06:24:01.023Z,6.3
2023-04-21T06:25:01.033Z,5.9
2023-04-21T06:26:01.390Z,6.3
2023-04-21T06:27:01.396Z,6.8
2023-04-21T06:28:01.492Z,6.4
2023-04-21T06:29:01.084Z,6.3
2023-04-21T06:30:01.035Z,6.6
2023-04-21T06:31:01.106Z,6.5
2023-04-21T06:32:01.040Z,6.4
2023-04-21T06:33:01.110Z,6.9
2023-04-21T06:34:01.838Z,6.3
2023-04-21T06:35:01.425Z,6.6
2023-04-21T06:36:01.032Z,5.8
2023-04-21T06:37:01.068Z,6.5
2023-04-21T06:38:01.031Z,6
2023-04-21T06:39:01.026Z,5.9
2023-04-21T06:40:04.859Z,5.9
2023-04-21T06:41:01.202Z,6.5
2023-04-21T06:42:02.472Z,6.6
2023-04-21T06:43:02.047Z,6.7
2023-04-21T06:44:01.453Z,6.9
2023-04-21T06:45:07.582Z,6.6
2023-04-21T06:46:01.681Z,6.5
2023-04-21T06:47:02.466Z,6
2023-04-21T06:48:04.892Z,6.2
2023-04-21T06:49:01.655Z,6.4
2023-04-21T06:50:11.525Z,6.1
2023-04-21T06:51:02.154Z,5.7
2023-04-21T06:52:02.128Z,6.3
2023-04-21T06:53:01.034Z,5.4
2023-04-21T06:54:01.047Z,5.1
2023-04-21T06:55:15.098Z,5.3
2023-04-21T06:56:01.034Z,5.1
2023-04-21T06:57:01.031Z,5.5
2023-04-21T06:58:01.237Z,5.3
2023-04-21T06:59:01.503Z,5.5
2023-04-21T07:00:16.715Z,4.7
2023-04-21T07:01:01.849Z,4.9
2023-04-21T07:02:01.741Z,5.1
2023-04-21T07:03:01.166Z,5.1
2023-04-21T07:04:02.008Z,4.5
2023-04-21T07:05:01.860Z,4.6
2023-04-21T07:06:01.342Z,4.2
2023-04-21T07:07:03.244Z,4
2023-04-21T07:08:04.011Z,3.8
2023-04-21T07:09:01.059Z,4.1
2023-04-21T07:10:01.295Z,4.9
2023-04-21T07:11:01.024Z,5.3
2023-04-21T07:12:01.030Z,4.6
2023-04-21T07:13:01.698Z,4.5
2023-04-21T07:14:01.657Z,4.2
2023-04-21T07:15:01.359Z,4.4
2023-04-21T07:16:02.281Z,4.7
2023-04-21T07:17:01.072Z,4.6
2023-04-21T07:18:01.079Z,3.6
2023-04-21T07:19:01.160Z,4
2023-04-21T07:20:03.949Z,3.6
2023-04-21T07:21:00.878Z,3.6
2023-04-21T07:22:01.054Z,3.4
2023-04-21T07:23:01.036Z,3.4
2023-04-21T07:24:01.045Z,3.5
2023-04-21T07:25:01.018Z,2.6
2023-04-21T07:26:01.219Z,3.4
2023-04-21T07:27:01.027Z,2.7
2023-04-21T07:28:01.039Z,2.9
2023-04-21T07:29:01.022Z,2.8
2023-04-21T07:30:01.024Z,2.8
2023-04-21T07:31:03.471Z,2.4
2023-04-21T07:32:01.035Z,2.5
2023-04-21T07:33:01.046Z,2.7
2023-04-21T07:34:01.033Z,2.7
2023-04-21T07:35:01.034Z,2.8
2023-04-21T07:36:01.039Z,2.4
2023-04-21T07:37:01.109Z,3.3
2023-04-21T07:38:01.041Z,2.2
2023-04-21T07:39:01.105Z,2.3
2023-04-21T07:40:01.463Z,2.5
2023-04-21T07:41:01.036Z,2.1
2023-04-21T07:42:01.099Z,2
2023-04-21T07:43:01.080Z,1.9
2023-04-21T07:44:01.032Z,2.9
2023-04-21T07:45:01.033Z,2.3
2023-04-21T07:46:01.067Z,2.7
2023-04-21T07:47:01.040Z,2.5
2023-04-21T07:48:01.233Z,1.9
2023-04-21T07:49:03.751Z,1.6
2023-04-21T07:50:01.605Z,2
2023-04-21T07:51:02.056Z,1.4
2023-04-21T07:52:01.111Z,1.5
2023-04-21T07:53:01.273Z,2.3
2023-04-21T07:54:01.941Z,1.7
2023-04-21T07:55:02.486Z,1.6
2023-04-21T07:56:01.242Z,1.4
2023-04-21T07:57:01.762Z,1.5
2023-04-21T07:58:01.541Z,1.2
2023-04-21T07:59:01.510Z,1
2023-04-21T08:00:01.246Z,1
2023-04-21T08:01:02.442Z,1
2023-04-21T08:02:02.470Z,1
2023-04-21T08:03:01.217Z,1
2023-04-21T08:04:02.465Z,1
2023-04-21T08:05:01.913Z,1
2023-04-21T08:06:01.440Z,1
2023-04-21T08:07:01.853Z,1
2023-04-21T08:08:01.231Z,1
2023-04-21T08:09:01.145Z,1
2023-04-21T08:10:01.036Z,1
2023-04-21T08:11:01.049Z,1
2023-04-21T08:12:01.627Z,1
2023-04-21T08:13:01.697Z,1
2023-04-21T08:14:02.059Z,1
2023-04-21T08:15:01.252Z,1
2023-04-21T08:16:03.236Z,1
2023-04-21T08:17:01.337Z,1
2023-04-21T08:18:01.862Z,1
2023-04-21T08:19:01.722Z,1
2023-04-21T08:20:01.041Z,1
2023-04-21T08:21:05.570Z,1
2023-04-21T08:22:01.069Z,1
2023-04-21T08:23:01.196Z,1
2023-04-21T08:24:01.019Z,1
2023-04-21T08:25:01.026Z,1
2023-04-21T08:26:08.997Z,1
2023-04-21T08:27:03.718Z,1
2023-04-21T08:28:01.038Z,1
2023-04-21T08:29:03.480Z,1
2023-04-21T08:30:01.289Z,1
2023-04-21T08:31:11.602Z,1
2023-04-21T08:32:01.100Z,1
2023-04-21T08:33:01.944Z,1
2023-04-21T08:34:02.754Z,1
2023-04-21T08:35:01.018Z,1
2023-04-21T08:36:26.171Z,1
2023-04-21T08:37:01.084Z,1
2023-04-21T08:38:01.721Z,1
2023-04-21T08:39:01.811Z,1
2023-04-21T08:40:01.878Z,1
2023-04-21T08:41:02.315Z,1
2023-04-21T08:42:01.108Z,1
2023-04-21T08:43:01.055Z,1
2023-04-21T08:44:01.040Z,1
2023-04-21T08:45:01.030Z,1
2023-04-21T08:46:01.408Z,1
2023-04-21T08:47:01.042Z,1
2023-04-21T08:48:01.124Z,1
2023-04-21T08:49:02.587Z,1
2023-04-21T08:50:02.744Z,1
2023-04-21T08:51:01.290Z,1
2023-04-21T08:52:01.020Z,1
2023-04-21T08:53:01.218Z,1
2023-04-21T08:54:01.447Z,1
2023-04-21T08:55:02.854Z,1
2023-04-21T08:56:10.861Z,1
2023-04-21T08:57:14.055Z,1
2023-04-21T08:58:01.272Z,1
2023-04-21T08:59:01.837Z,1
2023-04-21T09:00:01.930Z,1
2023-04-21T09:01:02.256Z,1
2023-04-21T09:02:01.775Z,1
2023-04-21T09:03:02.615Z,1
2023-04-21T09:04:01.909Z,1
2023-04-21T09:05:01.385Z,1
2023-04-21T09:06:01.246Z,1
2023-04-21T09:07:04.045Z,1
2023-04-21T09:08:01.208Z,1
2023-04-21T09:09:03.756Z,1
2023-04-21T09:10:02.025Z,1
2023-04-21T09:11:01.904Z,1
2023-04-21T09:12:02.318Z,1
2023-04-21T09:13:01.028Z,1
2023-04-21T09:14:01.045Z,1
2023-04-21T09:15:01.111Z,1
2023-04-21T09:16:01.047Z,1
2023-04-21T09:17:01.509Z,1
2023-04-21T09:18:02.074Z,1
2023-04-21T09:19:01.679Z,1
2023-04-21T09:20:01.047Z,1
2023-04-21T09:21:01.028Z,1
2023-04-21T09:22:01.027Z,1
2023-04-21T09:23:01.102Z,1
2023-04-21T09:24:01.115Z,1
2023-04-21T09:25:01.160Z,1
2023-04-21T09:26:01.170Z,1
2023-04-21T09:27:01.035Z,1
2023-04-21T09:28:01.105Z,1
2023-04-21T09:29:01.035Z,1
2023-04-21T09:30:01.042Z,1
2023-04-21T09:31:01.099Z,1
2023-04-21T09:32:01.276Z,1
2023-04-21T09:33:01.488Z,1
2023-04-21T09:34:02.225Z,1
2023-04-21T09:35:01.809Z,1
2023-04-21T09:36:01.922Z,1
2023-04-21T09:37:01.118Z,1
2023-04-21T09:38:01.031Z,1
2023-04-21T09:40:04.758Z,1
2023-04-21T09:41:01.439Z,1
2023-04-21T09:42:01.135Z,1
2023-04-21T09:43:03.855Z,1
2023-04-21T09:44:01.072Z,1
2023-04-21T09:45:28.403Z,1
2023-04-21T09:45:59.580Z,1
2023-04-21T09:47:01.728Z,1
2023-04-21T09:48:01.768Z,1
2023-04-21T09:49:01.687Z,1
2023-04-21T09:50:02.756Z,1
2023-04-21T09:51:28.188Z,1
2023-04-21T09:53:01.027Z,1
2023-04-21T09:54:01.038Z,1
2023-04-21T09:55:01.482Z,1
2023-04-21T09:56:01.032Z,1
2023-04-21T09:57:03.809Z,1
2023-04-21T09:58:01.692Z,1
2023-04-21T09:59:01.688Z,1
2023-04-21T10:00:01.298Z,1
2023-04-21T10:01:02.081Z,1
2023-04-21T10:02:06.437Z,1
2023-04-21T10:03:02.121Z,1
2023-04-21T10:04:01.335Z,1
2023-04-21T10:05:02.305Z,1
2023-04-21T10:06:01.704Z,1
2023-04-21T10:07:09.026Z,1
2023-04-21T10:08:01.677Z,1
2023-04-21T10:09:01.019Z,1
2023-04-21T10:10:01.037Z,1
2023-04-21T10:11:01.053Z,1
2023-04-21T10:12:11.576Z,1
2023-04-21T10:13:01.030Z,1
2023-04-21T10:14:01.048Z,1
2023-04-21T10:15:01.078Z,1
2023-04-21T10:16:01.101Z,1
2023-04-21T10:17:15.938Z,1
2023-04-21T10:18:01.222Z,1
2023-04-21T10:19:01.039Z,1
2023-04-21T10:20:01.038Z,1
2023-04-21T10:21:00.714Z,1
2023-04-21T10:21:59.825Z,1
2023-04-21T10:23:02.076Z,1
2023-04-21T10:24:01.677Z,1
2023-04-21T10:25:01.179Z,1
2023-04-21T10:26:01.848Z,1
2023-04-21T10:27:01.804Z,1
2023-04-21T10:28:02.424Z,1
2023-04-21T10:29:01.395Z,1
2023-04-21T10:30:01.107Z,1
2023-04-21T10:31:01.788Z,1
2023-04-21T10:32:01.593Z,1
2023-04-21T10:33:08.680Z,1
2023-04-21T10:34:02.303Z,1
2023-04-21T10:35:01.811Z,1
2023-04-21T10:36:01.936Z,1
2023-04-21T10:37:01.042Z,1
2023-04-21T10:38:01.069Z,1
2023-04-21T10:39:01.044Z,1
2023-04-21T10:40:01.453Z,1
2023-04-21T10:41:00.790Z,1
2023-04-21T10:42:00.326Z,1
2023-04-21T10:42:59.864Z,1
2023-04-21T10:44:02.950Z,1
2023-04-21T10:45:05.020Z,1
2023-04-21T10:46:02.044Z,1
2023-04-21T10:47:02.089Z,1
2023-04-21T10:48:01.075Z,1
2023-04-21T10:49:01.683Z,1
2023-04-21T10:50:01.308Z,1
2023-04-21T10:51:00.946Z,1
2023-04-21T10:52:00.672Z,1
2023-04-21T10:53:00.410Z,1
2023-04-21T10:54:00.041Z,1
2023-04-21T10:54:59.614Z,1
2023-04-21T10:56:01.733Z,1
2023-04-21T10:57:02.427Z,1
2023-04-21T10:58:01.043Z,1
2023-04-21T10:59:01.058Z,1
2023-04-21T11:00:01.751Z,1
2023-04-21T11:01:00.856Z,1
2023-04-21T11:02:00.728Z,1
2023-04-21T11:03:01.588Z,1
2023-04-21T11:04:01.581Z,1
2023-04-21T11:05:01.857Z,1
2023-04-21T11:06:01.025Z,1
2023-04-21T11:07:01.023Z,1
2023-04-21T11:08:01.213Z,1
2023-04-21T11:09:01.340Z,1
2023-04-21T11:10:01.075Z,1
2023-04-21T11:11:01.408Z,1
2023-04-21T11:12:08.176Z,1
2023-04-21T11:13:01.480Z,1
2023-04-21T11:14:01.764Z,1
2023-04-21T11:15:01.065Z,1
2023-04-21T11:16:01.082Z,1
2023-04-21T11:17:01.201Z,1
2023-04-21T11:18:02.515Z,1
2023-04-21T11:19:01.370Z,1
2023-04-21T11:20:01.417Z,1
2023-04-21T11:21:01.077Z,1
2023-04-21T11:22:01.219Z,1
2023-04-21T11:23:01.930Z,1
2023-04-21T11:24:01.849Z,1
2023-04-21T11:25:01.018Z,1
2023-04-21T11:26:00.902Z,1
2023-04-21T11:27:00.523Z,1
2023-04-21T11:28:00.252Z,1
2023-04-21T11:29:00.059Z,1
2023-04-21T11:29:59.682Z,1
2023-04-21T11:31:01.382Z,1
2023-04-21T11:32:01.111Z,1
2023-04-21T11:33:00.900Z,1
2023-04-21T11:34:01.068Z,1
2023-04-21T11:35:01.028Z,1
2023-04-21T11:36:01.065Z,1
2023-04-21T11:37:01.037Z,1
2023-04-21T11:38:04.066Z,1
2023-04-21T11:39:01.048Z,1
2023-04-21T11:40:01.121Z,1
2023-04-21T11:41:00.832Z,1
2023-04-21T11:42:00.404Z,1
2023-04-21T11:43:05.463Z,1
2023-04-21T11:44:01.057Z,1
2023-04-21T11:45:01.023Z,1
2023-04-21T11:46:01.134Z,1
2023-04-21T11:47:01.121Z,1
2023-04-21T11:48:09.269Z,1
2023-04-21T11:49:01.081Z,1
2023-04-21T11:50:01.064Z,1
2023-04-21T11:51:01.049Z,1
2023-04-21T11:52:01.442Z,1
2023-04-21T11:53:12.931Z,1
2023-04-21T11:54:01.717Z,1
2023-04-21T11:55:01.072Z,1
2023-04-21T11:56:01.035Z,1
2023-04-21T11:57:02.696Z,1
2023-04-21T11:58:15.032Z,1
2023-04-21T11:59:01.098Z,1
2023-04-21T12:00:01.252Z,1
2023-04-21T12:01:01.092Z,1
2023-04-21T12:02:01.181Z,1
2023-04-21T12:03:02.032Z,1
2023-04-21T12:04:02.536Z,1
2023-04-21T12:05:01.212Z,1
2023-04-21T12:06:01.139Z,1
2023-04-21T12:07:01.033Z,1
2023-04-21T12:08:01.031Z,1
2023-04-21T12:09:01.257Z,1
2023-04-21T12:10:03.908Z,1
2023-04-21T12:11:01.924Z,1
2023-04-21T12:12:01.681Z,1
2023-04-21T12:13:01.125Z,1
2023-04-21T12:14:01.077Z,1
2023-04-21T12:15:01.060Z,1
2023-04-21T12:16:01.143Z,1
2023-04-21T12:17:01.084Z,1
2023-04-21T12:18:01.469Z,1
2023-04-21T12:19:01.688Z,1
2023-04-21T12:20:01.226Z,1
2023-04-21T12:21:00.864Z,1
2023-04-21T12:22:01.139Z,1
2023-04-21T12:23:01.208Z,1
2023-04-21T12:24:01.022Z,1
2023-04-21T12:25:01.749Z,1
2023-04-21T12:26:01.080Z,1
2023-04-21T12:27:01.070Z,1
2023-04-21T12:28:01.234Z,1
2023-04-21T12:29:01.117Z,1
2023-04-21T12:30:01.036Z,1
2023-04-21T12:31:02.407Z,1
2023-04-21T12:32:03.233Z,1
2023-04-21T12:33:01.265Z,1
2023-04-21T12:34:02.505Z,1
2023-04-21T12:35:01.380Z,1
2023-04-21T12:36:01.375Z,1
2023-04-21T12:37:05.948Z,1
2023-04-21T12:38:04.114Z,1
2023-04-21T12:39:01.390Z,1
2023-04-21T12:40:01.205Z,1
2023-04-21T12:41:02.005Z,1
2023-04-21T12:42:01.039Z,1
2023-04-21T12:43:01.055Z,1
2023-04-21T12:44:01.345Z,1
2023-04-21T12:45:01.036Z,1
2023-04-21T12:46:00.796Z,1
2023-04-21T12:47:00.454Z,1
2023-04-21T12:48:00.229Z,1
2023-04-21T12:48:59.871Z,1
2023-04-21T12:49:59.546Z,1
2023-04-21T12:51:01.093Z,1
2023-04-21T12:52:01.338Z,1
2023-04-21T12:53:02.575Z,1
2023-04-21T12:54:02.414Z,1
2023-04-21T12:55:01.814Z,1
2023-04-21T12:56:05.221Z,1
2023-04-21T12:57:04.498Z,1
2023-04-21T12:58:01.273Z,1
2023-04-21T12:59:01.946Z,1
2023-04-21T13:00:01.047Z,1
2023-04-21T13:01:01.802Z,1
2023-04-21T13:02:02.616Z,1
2023-04-21T13:03:01.238Z,1
2023-04-21T13:04:02.374Z,1
2023-04-21T13:05:08.162Z,1
2023-04-21T13:06:01.477Z,1
2023-04-21T13:07:01.918Z,1
2023-04-21T13:08:01.060Z,1
2023-04-21T13:09:01.008Z,1
2023-04-21T13:10:01.029Z,1
2023-04-21T13:11:01.025Z,1
2023-04-21T13:12:01.044Z,1
2023-04-21T13:13:01.018Z,1
2023-04-21T13:14:00.836Z,1
2023-04-21T13:15:00.387Z,1
2023-04-21T13:16:00.117Z,1
2023-04-21T13:16:59.749Z,1
2023-04-21T13:18:04.554Z,1
2023-04-21T13:19:04.903Z,1
2023-04-21T13:20:01.861Z,1
2023-04-21T13:21:02.397Z,1
2023-04-21T13:22:01.105Z,1
2023-04-21T13:23:01.709Z,1
2023-04-21T13:24:10.030Z,1
2023-04-21T13:25:01.820Z,1
2023-04-21T13:26:01.582Z,1
2023-04-21T13:27:04.266Z,1
2023-04-21T13:28:01.548Z,1
2023-04-21T13:29:12.263Z,1
2023-04-21T13:30:01.098Z,1
2023-04-21T13:31:01.105Z,1
2023-04-21T13:32:01.032Z,1
2023-04-21T13:33:01.129Z,1
2023-04-21T13:34:16.839Z,1
2023-04-21T13:35:01.015Z,1
2023-04-21T13:36:01.052Z,1
2023-04-21T13:37:00.690Z,1
2023-04-21T13:38:00.242Z,1
2023-04-21T13:39:00.138Z,1
2023-04-21T13:39:59.742Z,1
2023-04-21T13:41:02.074Z,1
2023-04-21T13:42:01.285Z,1
2023-04-21T13:43:03.612Z,1
2023-04-21T13:44:02.313Z,1
2023-04-21T13:45:01.302Z,1
2023-04-21T13:46:01.620Z,1
2023-04-21T13:47:01.255Z,1
2023-04-21T13:48:02.050Z,1
2023-04-21T13:49:02.277Z,1
2023-04-21T13:50:01.218Z,1
2023-04-21T13:51:01.046Z,1
2023-04-21T13:52:01.056Z,1
2023-04-21T13:53:01.028Z,1
2023-04-21T13:54:01.025Z,1
2023-04-21T13:55:01.345Z,1
2023-04-21T13:56:01.054Z,1
2023-04-21T13:57:01.017Z,1
2023-04-21T13:58:01.042Z,1
2023-04-21T13:59:01.042Z,1
2023-04-21T14:00:01.483Z,1
2023-04-21T14:01:01.254Z,1
2023-04-21T14:02:01.392Z,1
2023-04-21T14:03:01.296Z,1
2023-04-21T14:04:02.663Z,1
2023-04-21T14:05:04.360Z,1
2023-04-21T14:06:01.687Z,1
2023-04-21T14:07:01.042Z,1